Impacts METAR Board
IDs:

KMIA - Miami Intl, FL, US

Updated at: 0100 UTC 18 Aug 2018
Potential Impact None Slight Moderate High
Time 17/13Z 17/14Z 17/15Z 17/16Z 17/17Z 17/18Z 17/19Z 17/20Z 17/21Z 17/22Z 17/23Z 18/00Z 18/01Z
Temp86 85 87 87 90 88 91 88 87 86 86 85 84
Dewpt77 78 77 77 75 75 74 75 73 75 75 76 75
Altim30.15 30.17 30.17 30.18 30.17 30.16 30.14 30.14 30.13 30.13 30.11 30.12 30.13
VIS10 10 10 10 10 10 10 10 10 10 10 10 10
CIG30 50 34 28 300 300 300 60 250 95 -- 250 --
CoverBKNBKNBKNBKNBKNBKNBKNBKNBKNBKNSCTBKNSCT
FltCatMVFRVFRVFRMVFRVFRVFRVFRVFRVFRVFRVFRVFRVFR
WX--------------------------
WDir100110100120100120100808090908080
WSpd14 10 13 12 11 11 11 11 13 10 11 9 8
WGst-- -- 16 -- -- -- -- -- -- -- -- -- --
Raw hourly METARs
KMIA 171253Z COR 10014KT 10SM SCT025TCU BKN030 BKN300 30/25 A3015 RMK AO2 TCU SE AND S SLP211 T03000250
KMIA 171353Z 11010KT 10SM SCT023TCU BKN050 BKN100 BKN300 29/26 A3017 RMK AO2 RAB35E53 SLP216 TCU W-N-E P0000 T02940256
KMIA 171453Z 10013G16KT 10SM SCT026TCU BKN034 BKN050 BKN300 31/25 A3017 RMK AO2 SLP218 TCU SE AND NW-N 60000 T03060250 53007
KMIA 171553Z 12012KT 10SM BKN028TCU BKN040 BKN065 BKN300 31/25 A3018 RMK AO2 SLP221 TCU SW-W AND DSNT E T03060250
KMIA 171653Z 10011KT 10SM SCT034TCU BKN300 32/24 A3017 RMK AO2 PK WND 10026/1637 SLP216 TCU N-E T03220239
KMIA 171753Z 12011KT 10SM SCT030TCU SCT040 BKN300 31/24 A3016 RMK AO2 LTG DSNT SW SLP212 CB DSNT SW MOV W TCU N AND W 60000 T03110239 10322 20278 58006
KMIA 171853Z 10011KT 10SM SCT030 BKN300 33/23 A3014 RMK AO2 SLP207 CB DSNT E T03280233
KMIA 171953Z 08011KT 10SM SCT035CB BKN060 BKN250 31/24 A3014 RMK AO2 SLP205 CB NE-SE MOV W MDT CU S T03110239
KMIA 172053Z 08013KT 10SM FEW032TCU SCT100 BKN250 31/23 A3013 RMK AO2 SLP204 TCU W CB DSNT E T03060228 56008
KMIA 172153Z 09010KT 10SM FEW035 BKN095 BKN250 30/24 A3013 RMK AO2 SLP202 CB DSNT E AND W T03000239
KMIA 172253Z COR 09011KT 10SM FEW035 FEW100 SCT250 30/24 A3011 RMK AO2 SLP196 CB DSNT SE T03000239
KMIA 172353Z 08009KT 10SM FEW027 SCT100 BKN250 29/24 A3012 RMK AO2 SLP200 CB DSNT NE AND SE T02940244 10328 20294 55004
KMIA 180053Z 08008KT 10SM FEW025 SCT200 SCT250 29/24 A3013 RMK AO2 SLP202 T02890239



Page loaded:  01:28 UTC  |   06:28 PM Pacific  |   07:28 PM Mountain  |   08:28 PM Central  |   09:28 PM Eastern

 

ADVISORIES

FORECASTS

FORECASTS

OBSERVATIONS

USER TOOLS

ABOUT US